Indian Gap, Texas
Current Conditions -  °F | °C
As of 6:15 AM on Friday 28 Nov 2014 (Local Time) from KMNZ Reporting Station
Clear Clear  
Wind Chill: 36°   Ceiling: Unl
Heat Index: 41°   Visibility: 10mi
Dew Point: 33°   Wind: 7mph
Humidity: 74%   Direction: 160°SSE
Pressure: 30.27"   Gusts: NA
Location:  31.6401°N, 98.1198°W
Report Text: KMNZ 281215Z AUTO 16006KT 10SM CLR 05/01 A3027 RMK AO2 T00500007
Loading
Personal Weather Stations






























Interactive Weather Map New forecast layout! Learn more

10-Day Weather Forecast

Advertisements
Track Severe Weather on mobile